createdAt,value
2023-01-13T00:00:10.928Z,2.05
2023-01-13T00:04:15.116Z,1.70
2023-01-13T00:06:21.428Z,2.15
2023-01-13T00:08:23.536Z,1.90
2023-01-13T00:10:25.716Z,2.05
2023-01-13T00:12:27.852Z,2.17
2023-01-13T00:14:30.213Z,1.80
2023-01-13T00:16:32.421Z,2.13
2023-01-13T00:18:36.891Z,2.25
2023-01-13T00:20:39.146Z,1.77
2023-01-13T00:22:41.401Z,2.08
2023-01-13T00:24:43.514Z,2.63
2023-01-13T00:26:45.744Z,4.18
2023-01-13T00:28:48.288Z,1.77
2023-01-13T00:30:50.599Z,2.05
2023-01-13T00:32:52.745Z,1.65
2023-01-13T00:34:54.905Z,3.97
2023-01-13T00:36:58.002Z,2.22
2023-01-13T00:39:00.179Z,1.98
2023-01-13T00:41:09.332Z,2.60
2023-01-13T00:43:23.441Z,1.95
2023-01-13T00:45:25.606Z,2.67
2023-01-13T00:47:27.819Z,2.33
2023-01-13T00:49:29.954Z,1.90
2023-01-13T00:51:32.111Z,1.88
2023-01-13T00:53:35.693Z,1.73
2023-01-13T00:55:37.845Z,1.98
2023-01-13T00:57:40.129Z,2.50
2023-01-13T00:59:42.405Z,1.73
2023-01-13T01:01:44.727Z,3.17
2023-01-13T01:03:50.531Z,1.02
2023-01-13T01:05:52.621Z,1.17
2023-01-13T01:07:54.785Z,1.00
2023-01-13T01:09:56.927Z,1.17
2023-01-13T01:12:00.678Z,2.33
2023-01-13T01:14:03.479Z,0.93
2023-01-13T01:16:09.715Z,1.42
2023-01-13T01:18:11.967Z,0.82
2023-01-13T01:20:14.079Z,2.65
2023-01-13T01:22:16.248Z,1.50
2023-01-13T01:24:18.424Z,1.85
2023-01-13T01:26:22.205Z,1.70
2023-01-13T01:28:24.416Z,1.35
2023-01-13T01:30:27.584Z,1.17
2023-01-13T01:32:29.811Z,1.52
2023-01-13T01:34:32.066Z,1.95
2023-01-13T01:36:35.273Z,0.90
2023-01-13T01:38:37.640Z,2.15
2023-01-13T01:40:39.870Z,0.90
2023-01-13T01:43:00.567Z,0.85
2023-01-13T01:45:11.471Z,1.27
2023-01-13T01:47:17.364Z,2.25
2023-01-13T01:49:28.552Z,0.85
2023-01-13T01:51:33.247Z,0.80
2023-01-13T01:53:35.425Z,4.60
2023-01-13T01:55:38.480Z,1.95
2023-01-13T01:57:43.471Z,2.65
2023-01-13T01:59:45.762Z,1.48
2023-01-13T02:01:49.272Z,1.10
2023-01-13T02:03:56.372Z,0.70
2023-01-13T02:05:58.541Z,1.52
2023-01-13T02:08:01.301Z,1.20
2023-01-13T02:12:24.418Z,2.28
2023-01-13T02:14:28.321Z,3.20
2023-01-13T02:16:30.485Z,1.38
2023-01-13T02:18:39.025Z,1.25
2023-01-13T02:20:56.476Z,1.25
2023-01-13T02:23:35.899Z,0.80
2023-01-13T02:25:50.032Z,0.80
2023-01-13T02:27:52.162Z,0.82
2023-01-13T02:30:18.935Z,1.38
2023-01-13T02:32:34.127Z,1.75
2023-01-13T02:34:48.667Z,0.88
2023-01-13T02:36:53.455Z,0.95
2023-01-13T02:38:58.358Z,1.13
2023-01-13T02:41:28.225Z,0.80
2023-01-13T02:43:54.715Z,1.15
2023-01-13T02:45:59.611Z,1.05
2023-01-13T02:48:04.081Z,1.15
2023-01-13T02:50:10.004Z,0.77
2023-01-13T02:52:17.540Z,1.70
2023-01-13T02:54:22.591Z,1.00
2023-01-13T02:56:25.187Z,1.30
2023-01-13T02:58:29.231Z,1.08
2023-01-13T03:00:33.541Z,1.38
2023-01-13T03:02:35.902Z,1.58
2023-01-13T03:04:48.892Z,0.82
2023-01-13T03:09:02.668Z,1.00
2023-01-13T03:11:12.578Z,2.08
2023-01-13T03:13:27.420Z,0.95
2023-01-13T03:15:44.616Z,1.15
2023-01-13T03:17:55.139Z,1.67
2023-01-13T03:20:11.057Z,1.60
2023-01-13T03:22:22.184Z,1.02
2023-01-13T03:24:43.275Z,0.95
2023-01-13T03:26:59.531Z,1.48
2023-01-13T03:29:34.779Z,0.70
2023-01-13T03:31:40.362Z,0.70
2023-01-13T03:33:45.749Z,1.05
2023-01-13T03:35:50.590Z,0.80
2023-01-13T03:37:57.319Z,1.52
2023-01-13T03:40:01.041Z,0.80
2023-01-13T03:42:06.409Z,1.05
2023-01-13T03:44:23.502Z,0.95
2023-01-13T03:46:33.395Z,3.00
2023-01-13T03:48:37.331Z,0.80
2023-01-13T03:50:50.495Z,1.10
2023-01-13T03:52:56.804Z,1.10
2023-01-13T03:55:02.726Z,0.85
2023-01-13T03:57:07.813Z,0.95
2023-01-13T03:59:12.175Z,1.45
2023-01-13T04:01:29.467Z,0.90
2023-01-13T04:03:39.655Z,1.30
2023-01-13T04:05:44.292Z,1.00
2023-01-13T04:07:52.612Z,0.80
2023-01-13T04:10:00.377Z,1.10
2023-01-13T04:12:50.272Z,1.48
2023-01-13T04:14:53.433Z,2.90
2023-01-13T04:16:55.977Z,2.58
2023-01-13T04:18:58.146Z,1.52
2023-01-13T04:21:01.795Z,1.50
2023-01-13T04:23:04.217Z,1.55
2023-01-13T04:25:06.624Z,2.15
2023-01-13T04:27:08.814Z,2.38
2023-01-13T04:29:10.964Z,1.85
2023-01-13T04:31:13.500Z,1.67
2023-01-13T04:33:16.395Z,1.38
2023-01-13T04:35:18.549Z,1.10
2023-01-13T04:37:20.779Z,1.70
2023-01-13T04:39:23.015Z,1.40
2023-01-13T04:41:25.314Z,1.08
2023-01-13T04:43:27.480Z,1.88
2023-01-13T04:45:29.620Z,1.08
2023-01-13T04:47:31.771Z,0.98
2023-01-13T04:49:34.173Z,2.15
2023-01-13T04:51:36.365Z,0.80
2023-01-13T04:53:38.538Z,1.33
2023-01-13T04:55:40.727Z,0.77
2023-01-13T04:57:42.883Z,1.10
2023-01-13T04:59:45.057Z,1.08
2023-01-13T05:01:47.329Z,0.95
2023-01-13T05:03:49.845Z,1.10
2023-01-13T05:05:52.954Z,1.58
2023-01-13T05:07:55.192Z,2.40
2023-01-13T05:09:57.529Z,2.15
2023-01-13T05:12:18.555Z,1.83
2023-01-13T05:14:39.578Z,2.20
2023-01-13T05:17:00.230Z,0.63
2023-01-13T05:19:02.430Z,0.82
2023-01-13T05:21:04.752Z,0.70
2023-01-13T05:23:25.746Z,0.77
2023-01-13T05:25:28.200Z,0.98
2023-01-13T05:27:30.574Z,0.63
2023-01-13T05:29:32.742Z,0.80
2023-01-13T05:31:35.003Z,0.90
2023-01-13T05:33:37.313Z,1.05
2023-01-13T05:35:40.012Z,2.55
2023-01-13T05:40:02.781Z,1.00
2023-01-13T05:42:23.680Z,1.45
2023-01-13T05:44:25.862Z,0.80
2023-01-13T05:46:28.022Z,1.40
2023-01-13T05:48:33.234Z,1.05
2023-01-13T05:50:35.359Z,0.98
2023-01-13T05:52:37.808Z,0.82
2023-01-13T05:54:41.168Z,1.20
2023-01-13T05:56:43.370Z,0.60
2023-01-13T05:58:45.530Z,0.90
2023-01-13T06:00:48.035Z,0.70
2023-01-13T06:02:50.361Z,0.80
2023-01-13T06:04:52.531Z,1.13
2023-01-13T06:06:55.963Z,0.77
2023-01-13T06:08:58.124Z,0.60
2023-01-13T06:11:00.320Z,1.42
2023-01-13T06:13:02.697Z,0.80
2023-01-13T06:15:05.021Z,0.85
2023-01-13T06:17:08.285Z,0.80
2023-01-13T06:19:13.008Z,0.70
2023-01-13T06:21:15.138Z,0.75
2023-01-13T06:23:17.341Z,1.27
2023-01-13T06:25:22.572Z,0.80
2023-01-13T06:27:25.610Z,0.60
2023-01-13T06:29:27.758Z,0.70
2023-01-13T06:31:30.792Z,0.93
2023-01-13T06:33:34.596Z,1.58
2023-01-13T06:35:38.108Z,6.00
2023-01-13T06:37:41.061Z,1.10
2023-01-13T06:39:43.373Z,1.20
2023-01-13T06:42:04.512Z,1.02
2023-01-13T06:44:06.833Z,0.70
2023-01-13T06:46:08.971Z,0.70
2023-01-13T06:48:11.194Z,0.68
2023-01-13T06:50:13.485Z,1.42
2023-01-13T06:52:15.730Z,0.70
2023-01-13T06:54:17.922Z,0.70
2023-01-13T06:56:20.089Z,1.80
2023-01-13T06:58:22.258Z,0.80
2023-01-13T07:00:25.446Z,1.05
2023-01-13T07:02:28.360Z,1.33
2023-01-13T07:04:30.578Z,0.70
2023-01-13T07:06:32.707Z,0.95
2023-01-13T07:08:34.834Z,0.60
2023-01-13T07:10:37.578Z,0.70
2023-01-13T07:15:20.317Z,0.65
2023-01-13T07:17:25.347Z,0.88
2023-01-13T07:19:27.633Z,0.90
2023-01-13T07:21:29.817Z,0.95
2023-01-13T07:23:32.826Z,1.27
2023-01-13T07:25:34.987Z,0.80
2023-01-13T07:27:37.160Z,0.75
2023-01-13T07:29:39.744Z,0.80
2023-01-13T07:31:41.993Z,1.38
2023-01-13T07:33:44.555Z,0.88
2023-01-13T07:35:48.825Z,0.75
2023-01-13T07:37:50.996Z,1.05
2023-01-13T07:39:53.132Z,0.80
2023-01-13T07:42:13.933Z,2.10
2023-01-13T07:44:16.063Z,0.65
2023-01-13T07:46:18.657Z,3.28
2023-01-13T07:48:20.841Z,0.93
2023-01-13T07:50:23.803Z,0.98
2023-01-13T07:52:25.961Z,0.98
2023-01-13T07:54:39.763Z,1.15
2023-01-13T07:56:42.620Z,0.85
2023-01-13T07:58:50.225Z,0.90
2023-01-13T08:00:52.902Z,1.02
2023-01-13T08:04:57.970Z,0.93
2023-01-13T08:07:00.168Z,2.28
2023-01-13T08:09:02.291Z,0.80
2023-01-13T08:11:05.395Z,2.35
2023-01-13T08:13:18.195Z,1.00
2023-01-13T08:15:20.399Z,1.10
2023-01-13T08:17:22.651Z,1.55
2023-01-13T08:19:24.816Z,1.48
2023-01-13T08:21:27.008Z,1.02
2023-01-13T08:23:29.205Z,1.10
2023-01-13T08:25:31.742Z,1.38
2023-01-13T08:27:34.177Z,0.80
2023-01-13T08:29:36.331Z,2.83
2023-01-13T08:31:38.455Z,0.75
2023-01-13T08:33:41.134Z,1.00
2023-01-13T08:37:45.886Z,0.90
2023-01-13T08:41:56.378Z,1.45
2023-01-13T08:43:58.527Z,1.27
2023-01-13T08:46:04.346Z,0.70
2023-01-13T08:48:06.759Z,0.70
2023-01-13T08:50:09.527Z,0.73
2023-01-13T08:54:14.040Z,0.70
2023-01-13T08:56:16.976Z,0.95
2023-01-13T08:58:19.139Z,0.82
2023-01-13T09:00:21.517Z,0.70
2023-01-13T09:02:24.365Z,1.27
2023-01-13T09:04:27.834Z,1.38
2023-01-13T09:06:30.035Z,0.93
2023-01-13T09:08:32.190Z,1.45
2023-01-13T09:10:35.644Z,2.00
2023-01-13T09:12:56.635Z,1.20
2023-01-13T09:14:58.933Z,1.20
2023-01-13T09:17:01.636Z,1.30
2023-01-13T09:21:05.993Z,1.20
2023-01-13T09:23:10.737Z,0.82
2023-01-13T09:25:13.364Z,2.55
2023-01-13T09:27:16.374Z,3.22
2023-01-13T09:29:18.977Z,0.77
2023-01-13T09:31:21.224Z,1.05
2023-01-13T09:33:41.979Z,1.00
2023-01-13T09:35:44.149Z,0.90
2023-01-13T09:37:46.278Z,1.30
2023-01-13T09:39:48.528Z,1.23
2023-01-13T09:42:11.270Z,0.93
2023-01-13T09:44:23.186Z,1.60
2023-01-13T09:46:47.020Z,1.98
2023-01-13T09:48:52.385Z,1.73
2023-01-13T09:51:07.021Z,2.00
2023-01-13T09:53:14.764Z,1.25
2023-01-13T09:55:16.887Z,1.02
2023-01-13T09:57:20.435Z,1.25
2023-01-13T09:59:22.583Z,1.38
2023-01-13T10:01:33.233Z,0.70
2023-01-13T10:03:36.125Z,1.38
2023-01-13T10:05:39.573Z,1.60
2023-01-13T10:07:44.650Z,0.90
2023-01-13T10:09:52.176Z,1.00
2023-01-13T10:12:15.613Z,0.80
2023-01-13T10:14:24.851Z,1.38
2023-01-13T10:16:42.096Z,0.95
2023-01-13T10:19:04.301Z,1.85
2023-01-13T10:21:25.136Z,1.75
2023-01-13T10:23:56.611Z,1.98
2023-01-13T10:26:05.341Z,1.33
2023-01-13T10:28:12.265Z,0.73
2023-01-13T10:30:21.533Z,0.93
2023-01-13T10:32:23.722Z,0.70
2023-01-13T10:34:26.497Z,0.60
2023-01-13T10:38:36.672Z,0.77
2023-01-13T10:40:47.578Z,0.88
2023-01-13T10:42:49.736Z,0.70
2023-01-13T10:44:53.473Z,2.15
2023-01-13T10:46:57.147Z,0.80
2023-01-13T10:49:00.847Z,1.05
2023-01-13T10:51:15.047Z,0.60
2023-01-13T10:53:18.776Z,0.60
2023-01-13T10:55:40.613Z,0.90
2023-01-13T10:57:42.760Z,1.23
2023-01-13T10:59:44.945Z,0.85
2023-01-13T11:02:24.330Z,1.00
2023-01-13T11:04:37.932Z,0.70
2023-01-13T11:06:47.163Z,0.80
2023-01-13T11:08:50.195Z,0.60
2023-01-13T11:10:54.949Z,0.70
2023-01-13T11:13:16.271Z,0.70
2023-01-13T11:15:21.523Z,0.77
2023-01-13T11:17:29.941Z,0.70
2023-01-13T11:19:33.036Z,0.55
2023-01-13T11:21:38.189Z,0.80
2023-01-13T11:23:47.984Z,0.88
2023-01-13T11:25:53.031Z,1.50
2023-01-13T11:28:15.027Z,0.60
2023-01-13T11:30:20.284Z,0.70
2023-01-13T11:32:23.612Z,1.02
2023-01-13T11:34:28.348Z,0.80
2023-01-13T11:36:41.062Z,0.65
2023-01-13T11:38:48.808Z,1.00
2023-01-13T11:40:51.509Z,1.23
2023-01-13T11:42:56.713Z,0.60
2023-01-13T11:45:17.372Z,0.50
2023-01-13T11:47:22.045Z,0.60
2023-01-13T11:49:29.047Z,1.30
2023-01-13T11:51:39.608Z,1.17
2023-01-13T11:53:44.809Z,0.80
2023-01-13T11:56:05.104Z,0.68
2023-01-13T11:58:10.103Z,0.60
2023-01-13T12:00:28.164Z,0.60
2023-01-13T12:02:58.147Z,0.70
2023-01-13T12:05:08.278Z,0.60
2023-01-13T12:07:18.109Z,0.85
2023-01-13T12:09:46.690Z,0.60
2023-01-13T12:12:13.154Z,0.93
2023-01-13T12:14:26.201Z,0.60
2023-01-13T12:18:45.802Z,1.25
2023-01-13T12:21:06.863Z,0.60
2023-01-13T12:23:14.113Z,0.70
2023-01-13T12:25:23.157Z,0.88
2023-01-13T12:27:40.162Z,0.80
2023-01-13T12:29:42.346Z,1.27
2023-01-13T12:31:44.859Z,0.70
2023-01-13T12:34:06.197Z,0.80
2023-01-13T12:36:17.337Z,1.05
2023-01-13T12:38:25.492Z,0.85
2023-01-13T12:40:39.682Z,1.50
2023-01-13T12:43:12.407Z,1.20
2023-01-13T12:45:14.558Z,0.60
2023-01-13T12:47:33.525Z,0.90
2023-01-13T12:49:36.688Z,1.23
2023-01-13T12:52:00.121Z,0.75
2023-01-13T12:54:03.051Z,0.60
2023-01-13T12:56:24.010Z,2.53
2023-01-13T12:58:29.395Z,0.80
2023-01-13T13:00:51.833Z,0.80
2023-01-13T13:03:10.080Z,0.90
2023-01-13T13:05:34.982Z,1.13
2023-01-13T13:07:41.406Z,1.10
2023-01-13T13:09:50.317Z,0.85
2023-01-13T13:11:58.618Z,1.00
2023-01-13T13:14:01.798Z,0.70
2023-01-13T13:16:22.795Z,1.35
2023-01-13T13:18:27.530Z,0.90
2023-01-13T13:20:50.692Z,1.23
2023-01-13T13:22:52.870Z,0.90
2023-01-13T13:24:55.193Z,0.80
2023-01-13T13:26:57.406Z,0.98
2023-01-13T13:29:09.469Z,1.08
2023-01-13T13:31:11.718Z,1.15
2023-01-13T13:33:16.775Z,0.60
2023-01-13T13:35:28.533Z,0.70
2023-01-13T13:37:33.693Z,0.65
2023-01-13T13:39:54.731Z,0.77
2023-01-13T13:42:20.381Z,0.70
2023-01-13T13:44:44.905Z,0.85
2023-01-13T13:46:48.633Z,0.93
2023-01-13T13:48:53.225Z,0.70
2023-01-13T13:51:00.201Z,2.42
2023-01-13T13:53:05.870Z,2.15
2023-01-13T13:55:19.124Z,2.10
2023-01-13T13:57:42.494Z,1.77
2023-01-13T14:01:46.773Z,1.45
2023-01-13T14:04:03.356Z,1.55
2023-01-13T14:06:06.758Z,1.10
2023-01-13T14:08:15.983Z,0.70
2023-01-13T14:10:22.702Z,3.35
2023-01-13T14:12:27.074Z,0.60
2023-01-13T14:14:29.851Z,0.60
2023-01-13T14:18:36.152Z,0.77
2023-01-13T14:20:38.645Z,0.50
2023-01-13T14:22:40.956Z,0.50
2023-01-13T14:24:47.697Z,1.67
2023-01-13T14:26:52.088Z,0.60
2023-01-13T14:28:54.726Z,0.60
2023-01-13T14:30:57.500Z,0.75
2023-01-13T14:35:01.762Z,2.08
2023-01-13T14:37:04.426Z,0.80
2023-01-13T14:41:20.071Z,0.68
2023-01-13T14:43:23.639Z,2.22
2023-01-13T14:45:26.888Z,1.00
2023-01-13T14:47:32.358Z,1.88
2023-01-13T14:49:39.596Z,1.00
2023-01-13T14:51:41.833Z,1.30
2023-01-13T14:53:46.857Z,1.90
2023-01-13T14:55:49.149Z,1.33
2023-01-13T14:57:51.531Z,2.28
2023-01-13T15:00:03.296Z,2.42
2023-01-13T15:02:24.819Z,1.08
2023-01-13T15:04:39.444Z,1.20
2023-01-13T15:06:46.388Z,4.18
2023-01-13T15:08:50.116Z,1.38
2023-01-13T15:10:54.688Z,1.05
2023-01-13T15:12:57.956Z,1.88
2023-01-13T15:15:00.155Z,1.85
2023-01-13T15:17:03.360Z,1.65
2023-01-13T15:19:05.600Z,1.17
2023-01-13T15:21:09.476Z,2.08
2023-01-13T15:23:12.271Z,3.85
2023-01-13T15:25:15.079Z,1.95
2023-01-13T15:27:23.039Z,1.45
2023-01-13T15:29:25.244Z,2.75
2023-01-13T15:31:28.013Z,2.47
2023-01-13T15:33:30.408Z,1.40
2023-01-13T15:35:32.672Z,2.08
2023-01-13T15:37:34.960Z,2.10
2023-01-13T15:39:37.296Z,1.27
2023-01-13T15:41:58.116Z,1.30
2023-01-13T15:44:19.040Z,1.00
2023-01-13T15:46:39.665Z,2.30
2023-01-13T15:48:41.909Z,1.40
2023-01-13T15:50:44.217Z,2.35
2023-01-13T15:52:46.629Z,1.30
2023-01-13T15:54:49.531Z,1.20
2023-01-13T15:56:52.424Z,1.40
2023-01-13T15:58:54.792Z,2.55
2023-01-13T16:00:57.083Z,1.33
2023-01-13T16:02:59.975Z,1.35
2023-01-13T16:05:02.345Z,1.50
2023-01-13T16:07:04.509Z,1.58
2023-01-13T16:09:06.814Z,1.50
2023-01-13T16:11:09.643Z,2.28
2023-01-13T16:13:12.563Z,3.10
2023-01-13T16:15:18.309Z,2.25
2023-01-13T16:17:22.258Z,3.38
2023-01-13T16:19:24.389Z,2.67
2023-01-13T16:21:26.635Z,1.98
2023-01-13T16:23:29.515Z,1.40
2023-01-13T16:25:31.895Z,2.78
2023-01-13T16:27:34.244Z,2.15
2023-01-13T16:29:36.405Z,1.50
2023-01-13T16:31:38.828Z,1.83
2023-01-13T16:33:41.007Z,1.90
2023-01-13T16:36:08.997Z,2.05
2023-01-13T16:38:05.723Z,5.93
2023-01-13T16:40:08.175Z,2.90
2023-01-13T16:42:10.318Z,3.67
2023-01-13T16:44:12.691Z,1.77
2023-01-13T16:46:18.129Z,3.03
2023-01-13T16:48:20.816Z,2.60
2023-01-13T16:52:25.859Z,2.95
2023-01-13T16:54:28.075Z,4.43
2023-01-13T16:56:31.760Z,5.90
2023-01-13T16:58:33.883Z,5.10
2023-01-13T17:00:36.076Z,5.65
2023-01-13T17:02:38.236Z,5.68
2023-01-13T17:04:40.433Z,6.45
2023-01-13T17:06:53.674Z,7.78
2023-01-13T17:09:00.453Z,9.50
2023-01-13T17:11:02.689Z,7.68
2023-01-13T17:13:15.682Z,7.45
2023-01-13T17:15:20.182Z,8.45
2023-01-13T17:17:24.047Z,7.15
2023-01-13T17:19:26.404Z,8.43
2023-01-13T17:21:28.608Z,9.43
2023-01-13T17:23:31.541Z,6.43
2023-01-13T17:25:33.780Z,7.72
2023-01-13T17:27:35.928Z,5.90
2023-01-13T17:29:38.137Z,5.97
2023-01-13T17:31:40.656Z,5.30
2023-01-13T17:33:42.841Z,6.82
2023-01-13T17:35:46.145Z,6.18
2023-01-13T17:37:48.318Z,5.88
2023-01-13T17:39:51.130Z,7.43
2023-01-13T17:41:55.802Z,3.92
2023-01-13T17:43:58.102Z,4.18
2023-01-13T17:46:00.506Z,5.63
2023-01-13T17:48:02.695Z,5.05
2023-01-13T17:50:05.146Z,6.72
2023-01-13T17:52:07.640Z,5.32
2023-01-13T17:54:12.506Z,4.28
2023-01-13T17:56:15.607Z,6.68
2023-01-13T17:58:17.854Z,4.85
2023-01-13T18:00:20.417Z,4.68
2023-01-13T18:02:22.644Z,6.45
2023-01-13T18:04:27.688Z,8.00
2023-01-13T18:06:30.305Z,5.55
2023-01-13T18:10:34.895Z,4.30
2023-01-13T18:12:37.131Z,6.28
2023-01-13T18:14:39.388Z,3.45
2023-01-13T18:16:41.646Z,3.97
2023-01-13T18:18:44.538Z,2.90
2023-01-13T18:21:05.272Z,3.40
2023-01-13T18:23:28.203Z,3.58
2023-01-13T18:25:49.116Z,3.58
2023-01-13T18:27:51.254Z,3.53
2023-01-13T18:29:54.972Z,4.05
2023-01-13T18:31:57.081Z,3.22
2023-01-13T18:33:59.243Z,4.55
2023-01-13T18:36:06.397Z,2.25
2023-01-13T18:38:08.889Z,4.18
2023-01-13T18:40:12.378Z,2.88
2023-01-13T18:42:33.420Z,1.85
2023-01-13T18:44:35.661Z,1.55
2023-01-13T18:46:37.799Z,2.90
2023-01-13T18:48:39.968Z,3.20
2023-01-13T18:50:42.256Z,2.33
2023-01-13T18:52:44.454Z,1.33
2023-01-13T18:54:47.674Z,1.73
2023-01-13T18:56:50.303Z,1.05
2023-01-13T19:01:02.521Z,1.45
2023-01-13T19:05:08.457Z,1.88
2023-01-13T19:07:12.934Z,1.38
2023-01-13T19:09:16.051Z,1.17
2023-01-13T19:11:20.041Z,1.77
2023-01-13T19:13:22.229Z,1.80
2023-01-13T19:15:24.415Z,3.17
2023-01-13T19:17:27.241Z,1.58
2023-01-13T19:19:29.651Z,1.20
2023-01-13T19:21:31.788Z,2.60
2023-01-13T19:23:33.976Z,1.45
2023-01-13T19:25:37.301Z,1.70
2023-01-13T19:27:39.895Z,2.42
2023-01-13T19:29:52.053Z,2.03
2023-01-13T19:31:54.871Z,2.60
2023-01-13T19:33:57.850Z,1.40
2023-01-13T19:36:00.965Z,3.03
2023-01-13T19:38:03.125Z,2.08
2023-01-13T19:40:09.271Z,3.40
2023-01-13T19:42:33.229Z,2.58
2023-01-13T19:44:54.567Z,1.30
2023-01-13T19:46:56.896Z,2.53
2023-01-13T19:48:59.062Z,1.42
2023-01-13T19:51:01.801Z,1.92
2023-01-13T19:55:06.281Z,1.67
2023-01-13T19:57:08.483Z,1.85
2023-01-13T19:59:13.291Z,1.60
2023-01-13T20:01:16.182Z,2.33
2023-01-13T20:03:20.670Z,1.33
2023-01-13T20:05:25.793Z,1.10
2023-01-13T20:07:29.629Z,1.10
2023-01-13T20:09:32.270Z,2.15
2023-01-13T20:13:36.770Z,2.33
2023-01-13T20:15:39.931Z,1.30
2023-01-13T20:17:42.233Z,1.67
2023-01-13T20:19:44.452Z,1.40
2023-01-13T20:21:46.609Z,1.48
2023-01-13T20:23:52.887Z,1.77
2023-01-13T20:25:55.075Z,1.27
2023-01-13T20:27:58.441Z,1.05
2023-01-13T20:30:00.779Z,2.05
2023-01-13T20:32:03.117Z,4.18
2023-01-13T20:34:05.604Z,1.50
2023-01-13T20:36:08.545Z,1.95
2023-01-13T20:38:10.720Z,1.92
2023-01-13T20:40:14.972Z,2.25
2023-01-13T20:42:29.458Z,1.40
2023-01-13T20:44:31.680Z,1.48
2023-01-13T20:46:33.928Z,2.95
2023-01-13T20:48:36.145Z,2.85
2023-01-13T20:50:38.496Z,1.27
2023-01-13T20:52:40.633Z,1.92
2023-01-13T20:54:42.756Z,2.40
2023-01-13T20:56:44.982Z,1.40
2023-01-13T20:58:47.164Z,1.70
2023-01-13T21:00:49.368Z,1.20
2023-01-13T21:02:51.730Z,0.93
2023-01-13T21:04:53.871Z,0.90
2023-01-13T21:06:59.016Z,1.23
2023-01-13T21:09:01.493Z,1.38
2023-01-13T21:11:04.895Z,1.10
2023-01-13T21:13:25.683Z,1.33
2023-01-13T21:15:28.064Z,1.00
2023-01-13T21:17:49.199Z,1.27
2023-01-13T21:19:51.342Z,1.00
2023-01-13T21:21:53.873Z,1.25
2023-01-13T21:23:56.042Z,0.90
2023-01-13T21:26:00.960Z,1.15
2023-01-13T21:28:06.312Z,1.48
2023-01-13T21:30:08.863Z,1.30
2023-01-13T21:32:11.346Z,3.67
2023-01-13T21:34:13.501Z,4.00
2023-01-13T21:36:16.271Z,2.95
2023-01-13T21:38:18.563Z,2.78
2023-01-13T21:40:20.839Z,3.10
2023-01-13T21:42:41.450Z,2.40
2023-01-13T21:45:02.398Z,4.53
2023-01-13T21:47:23.092Z,2.15
2023-01-13T21:49:25.247Z,2.80
2023-01-13T21:51:27.979Z,2.72
2023-01-13T21:53:30.191Z,3.40
2023-01-13T21:55:32.898Z,4.82
2023-01-13T21:59:37.118Z,1.85
2023-01-13T22:02:10.458Z,1.58
2023-01-13T22:04:13.622Z,1.88
2023-01-13T22:06:15.836Z,1.10
2023-01-13T22:08:17.988Z,1.52
2023-01-13T22:10:21.708Z,1.45
2023-01-13T22:12:24.697Z,3.08
2023-01-13T22:14:26.861Z,1.75
2023-01-13T22:16:29.304Z,2.92
2023-01-13T22:18:31.605Z,3.47
2023-01-13T22:20:33.761Z,1.20
2023-01-13T22:22:36.999Z,1.52
2023-01-13T22:24:43.203Z,1.30
2023-01-13T22:26:45.368Z,1.60
2023-01-13T22:28:47.521Z,1.40
2023-01-13T22:30:51.110Z,1.73
2023-01-13T22:32:53.380Z,2.10
2023-01-13T22:34:55.568Z,1.63
2023-01-13T22:36:57.897Z,2.00
2023-01-13T22:39:00.709Z,2.80
2023-01-13T22:41:04.313Z,1.80
2023-01-13T22:43:06.439Z,1.50
2023-01-13T22:45:11.056Z,3.42
2023-01-13T22:47:13.219Z,2.13
2023-01-13T22:49:16.031Z,3.83
2023-01-13T22:51:18.713Z,2.45
2023-01-13T22:55:22.848Z,3.00
2023-01-13T22:57:25.002Z,1.60
2023-01-13T22:59:27.347Z,4.38
2023-01-13T23:01:30.861Z,1.20
2023-01-13T23:03:33.076Z,4.28
2023-01-13T23:05:35.261Z,3.05
2023-01-13T23:07:37.379Z,1.98
2023-01-13T23:09:39.525Z,3.38
2023-01-13T23:11:41.969Z,1.92
2023-01-13T23:13:44.372Z,3.90
2023-01-13T23:15:46.665Z,2.55
2023-01-13T23:17:52.033Z,3.35
2023-01-13T23:19:54.159Z,2.42
2023-01-13T23:21:56.301Z,2.50
2023-01-13T23:23:59.036Z,2.38
2023-01-13T23:26:01.512Z,1.50
2023-01-13T23:28:03.773Z,1.40
2023-01-13T23:30:07.265Z,1.27
2023-01-13T23:32:09.685Z,2.83
2023-01-13T23:34:11.818Z,1.25
2023-01-13T23:36:15.377Z,4.90
2023-01-13T23:38:17.529Z,2.55
2023-01-13T23:40:19.761Z,3.50
2023-01-13T23:42:21.889Z,1.73
2023-01-13T23:44:24.109Z,1.55
2023-01-13T23:46:26.862Z,1.83
2023-01-13T23:48:29.183Z,2.22
2023-01-13T23:50:31.351Z,1.50
2023-01-13T23:52:33.474Z,1.65
2023-01-13T23:54:35.639Z,1.40
2023-01-13T23:56:39.630Z,2.67
2023-01-13T23:58:42.523Z,1.48
